sensor_id;sensor_type;location;lat;lon;timestamp;pressure;altitude;pressure_sealevel;temperature;humidity
44441;BME280;30146;52.268;20.944;2023-02-18T00:01:41;99240.17;;;7.84;73.81
44441;BME280;30146;52.268;20.944;2023-02-18T00:04:10;99251.27;;;7.82;73.50
44441;BME280;30146;52.268;20.944;2023-02-18T00:06:38;99258.09;;;7.82;73.44
44441;BME280;30146;52.268;20.944;2023-02-18T00:09:07;99257.09;;;7.80;73.50
44441;BME280;30146;52.268;20.944;2023-02-18T00:11:36;99264.60;;;7.79;73.52
44441;BME280;30146;52.268;20.944;2023-02-18T00:14:06;99269.20;;;7.77;73.37
44441;BME280;30146;52.268;20.944;2023-02-18T00:16:35;99273.69;;;7.74;73.30
44441;BME280;30146;52.268;20.944;2023-02-18T00:19:05;99281.89;;;7.71;73.12
44441;BME280;30146;52.268;20.944;2023-02-18T00:21:34;99286.04;;;7.66;72.90
44441;BME280;30146;52.268;20.944;2023-02-18T00:24:04;99291.02;;;7.63;73.00
44441;BME280;30146;52.268;20.944;2023-02-18T00:26:33;99287.34;;;7.59;72.62
44441;BME280;30146;52.268;20.944;2023-02-18T00:29:03;99286.71;;;7.56;72.48
44441;BME280;30146;52.268;20.944;2023-02-18T00:31:33;99284.86;;;7.54;72.46
44441;BME280;30146;52.268;20.944;2023-02-18T00:34:03;99292.02;;;7.53;72.08
44441;BME280;30146;52.268;20.944;2023-02-18T00:36:32;99297.30;;;7.51;71.92
44441;BME280;30146;52.268;20.944;2023-02-18T00:39:03;99293.08;;;7.48;71.81
44441;BME280;30146;52.268;20.944;2023-02-18T00:41:34;99294.65;;;7.47;71.61
44441;BME280;30146;52.268;20.944;2023-02-18T00:44:03;99293.97;;;7.47;71.36
44441;BME280;30146;52.268;20.944;2023-02-18T00:46:32;99295.02;;;7.45;71.28
44441;BME280;30146;52.268;20.944;2023-02-18T00:49:01;99292.11;;;7.45;71.18
44441;BME280;30146;52.268;20.944;2023-02-18T00:51:30;99295.70;;;7.44;70.96
44441;BME280;30146;52.268;20.944;2023-02-18T00:53:59;99284.84;;;7.43;70.83
44441;BME280;30146;52.268;20.944;2023-02-18T00:56:28;99292.67;;;7.42;70.62
44441;BME280;30146;52.268;20.944;2023-02-18T00:58:56;99296.27;;;7.40;70.43
44441;BME280;30146;52.268;20.944;2023-02-18T01:01:25;99294.27;;;7.37;70.09
44441;BME280;30146;52.268;20.944;2023-02-18T01:03:54;99299.91;;;7.35;69.85
44441;BME280;30146;52.268;20.944;2023-02-18T01:06:26;99298.92;;;7.32;69.67
44441;BME280;30146;52.268;20.944;2023-02-18T01:09:06;99305.05;;;7.31;69.41
44441;BME280;30146;52.268;20.944;2023-02-18T01:11:35;99303.04;;;7.31;69.40
44441;BME280;30146;52.268;20.944;2023-02-18T01:14:03;99301.16;;;7.31;69.17
44441;BME280;30146;52.268;20.944;2023-02-18T01:16:32;99303.88;;;7.30;69.02
44441;BME280;30146;52.268;20.944;2023-02-18T01:19:00;99305.95;;;7.28;68.92
44441;BME280;30146;52.268;20.944;2023-02-18T01:21:29;99300.02;;;7.26;68.69
44441;BME280;30146;52.268;20.944;2023-02-18T01:23:57;99301.55;;;7.26;68.61
44441;BME280;30146;52.268;20.944;2023-02-18T01:26:26;99306.33;;;7.25;68.59
44441;BME280;30146;52.268;20.944;2023-02-18T01:28:54;99305.33;;;7.23;68.27
44441;BME280;30146;52.268;20.944;2023-02-18T01:31:22;99298.22;;;7.21;68.10
44441;BME280;30146;52.268;20.944;2023-02-18T01:33:51;99295.67;;;7.21;68.07
44441;BME280;30146;52.268;20.944;2023-02-18T01:36:21;99294.33;;;7.19;67.96
44441;BME280;30146;52.268;20.944;2023-02-18T01:38:49;99289.23;;;7.19;67.83
44441;BME280;30146;52.268;20.944;2023-02-18T01:41:17;99295.04;;;7.18;67.87
44441;BME280;30146;52.268;20.944;2023-02-18T01:43:46;99289.76;;;7.18;67.73
44441;BME280;30146;52.268;20.944;2023-02-18T01:46:17;99286.70;;;7.18;67.77
44441;BME280;30146;52.268;20.944;2023-02-18T01:48:49;99289.75;;;7.18;67.71
44441;BME280;30146;52.268;20.944;2023-02-18T01:51:22;99287.20;;;7.18;67.53
44441;BME280;30146;52.268;20.944;2023-02-18T01:53:54;99288.23;;;7.18;67.50
44441;BME280;30146;52.268;20.944;2023-02-18T01:56:27;99289.94;;;7.18;67.46
44441;BME280;30146;52.268;20.944;2023-02-18T01:58:58;99281.09;;;7.18;67.28
44441;BME280;30146;52.268;20.944;2023-02-18T02:01:27;99278.52;;;7.19;67.22
44441;BME280;30146;52.268;20.944;2023-02-18T02:03:55;99281.09;;;7.18;67.02
44441;BME280;30146;52.268;20.944;2023-02-18T02:06:25;99267.84;;;7.18;66.98
44441;BME280;30146;52.268;20.944;2023-02-18T02:08:59;99277.88;;;7.17;67.01
44441;BME280;30146;52.268;20.944;2023-02-18T02:11:40;99274.13;;;7.17;66.76
44441;BME280;30146;52.268;20.944;2023-02-18T02:14:23;99271.75;;;7.17;66.57
44441;BME280;30146;52.268;20.944;2023-02-18T02:17:03;99265.84;;;7.15;66.47
44441;BME280;30146;52.268;20.944;2023-02-18T02:19:53;99266.72;;;7.12;66.50
44441;BME280;30146;52.268;20.944;2023-02-18T02:22:59;99266.92;;;7.09;66.44
44441;BME280;30146;52.268;20.944;2023-02-18T02:25:40;99258.48;;;7.05;66.20
44441;BME280;30146;52.268;20.944;2023-02-18T02:28:35;99255.81;;;7.00;66.12
44441;BME280;30146;52.268;20.944;2023-02-18T02:34:55;99261.37;;;6.91;66.03
44441;BME280;30146;52.268;20.944;2023-02-18T02:37:32;99268.55;;;6.87;65.95
44441;BME280;30146;52.268;20.944;2023-02-18T02:40:14;99271.30;;;6.84;65.93
44441;BME280;30146;52.268;20.944;2023-02-18T02:42:54;99284.57;;;6.83;65.89
44441;BME280;30146;52.268;20.944;2023-02-18T02:45:36;99280.35;;;6.80;65.78
44441;BME280;30146;52.268;20.944;2023-02-18T02:48:17;99282.23;;;6.79;65.81
44441;BME280;30146;52.268;20.944;2023-02-18T02:50:51;99285.98;;;6.77;65.73
44441;BME280;30146;52.268;20.944;2023-02-18T02:53:25;99287.70;;;6.76;65.64
44441;BME280;30146;52.268;20.944;2023-02-18T02:55:54;99294.67;;;6.74;65.52
44441;BME280;30146;52.268;20.944;2023-02-18T02:58:23;99289.42;;;6.73;65.61
44441;BME280;30146;52.268;20.944;2023-02-18T03:01:19;99295.87;;;6.73;65.62
44441;BME280;30146;52.268;20.944;2023-02-18T03:04:03;99300.64;;;6.73;65.64
44441;BME280;30146;52.268;20.944;2023-02-18T03:06:51;99298.10;;;6.72;65.53
44441;BME280;30146;52.268;20.944;2023-02-18T03:09:32;99309.48;;;6.71;65.48
44441;BME280;30146;52.268;20.944;2023-02-18T03:12:09;99306.29;;;6.69;65.36
44441;BME280;30146;52.268;20.944;2023-02-18T03:14:45;99312.91;;;6.68;65.41
44441;BME280;30146;52.268;20.944;2023-02-18T03:17:17;99313.60;;;6.68;65.39
44441;BME280;30146;52.268;20.944;2023-02-18T03:19:53;99313.27;;;6.67;65.40
44441;BME280;30146;52.268;20.944;2023-02-18T03:22:26;99321.77;;;6.67;65.39
44441;BME280;30146;52.268;20.944;2023-02-18T03:24:57;99316.84;;;6.66;65.24
44441;BME280;30146;52.268;20.944;2023-02-18T03:27:31;99309.88;;;6.65;65.12
44441;BME280;30146;52.268;20.944;2023-02-18T03:30:04;99317.89;;;6.63;65.09
44441;BME280;30146;52.268;20.944;2023-02-18T03:32:35;99327.08;;;6.62;65.12
44441;BME280;30146;52.268;20.944;2023-02-18T03:35:10;99322.33;;;6.61;65.08
44441;BME280;30146;52.268;20.944;2023-02-18T03:37:42;99329.81;;;6.60;65.08
44441;BME280;30146;52.268;20.944;2023-02-18T03:40:25;99332.52;;;6.59;65.06
44441;BME280;30146;52.268;20.944;2023-02-18T03:42:57;99333.89;;;6.59;65.05
44441;BME280;30146;52.268;20.944;2023-02-18T03:45:26;99333.73;;;6.58;64.98
44441;BME280;30146;52.268;20.944;2023-02-18T03:47:54;99339.52;;;6.58;64.85
44441;BME280;30146;52.268;20.944;2023-02-18T03:50:26;99344.27;;;6.58;64.59
44441;BME280;30146;52.268;20.944;2023-02-18T03:52:54;99335.61;;;6.57;64.76
44441;BME280;30146;52.268;20.944;2023-02-18T03:55:23;99341.40;;;6.57;64.53
44441;BME280;30146;52.268;20.944;2023-02-18T03:57:52;99352.26;;;6.56;64.60
44441;BME280;30146;52.268;20.944;2023-02-18T04:00:25;99351.23;;;6.56;64.54
44441;BME280;30146;52.268;20.944;2023-02-18T04:03:01;99346.16;;;6.54;64.52
44441;BME280;30146;52.268;20.944;2023-02-18T04:05:35;99363.14;;;6.53;64.43
44441;BME280;30146;52.268;20.944;2023-02-18T04:08:40;99366.90;;;6.51;64.43
44441;BME280;30146;52.268;20.944;2023-02-18T04:11:22;99371.14;;;6.50;64.39
44441;BME280;30146;52.268;20.944;2023-02-18T04:14:26;99370.50;;;6.47;64.41
44441;BME280;30146;52.268;20.944;2023-02-18T04:16:57;99367.79;;;6.46;64.45
44441;BME280;30146;52.268;20.944;2023-02-18T04:19:25;99361.70;;;6.45;64.38
44441;BME280;30146;52.268;20.944;2023-02-18T04:21:53;99365.78;;;6.43;64.23
44441;BME280;30146;52.268;20.944;2023-02-18T04:24:21;99370.55;;;6.41;64.16
44441;BME280;30146;52.268;20.944;2023-02-18T04:26:50;99377.69;;;6.40;64.34
44441;BME280;30146;52.268;20.944;2023-02-18T04:29:18;99369.71;;;6.38;64.27
44441;BME280;30146;52.268;20.944;2023-02-18T04:31:46;99375.83;;;6.38;64.35
44441;BME280;30146;52.268;20.944;2023-02-18T04:34:15;99359.90;;;6.36;64.28
44441;BME280;30146;52.268;20.944;2023-02-18T04:36:43;99365.84;;;6.34;64.26
44441;BME280;30146;52.268;20.944;2023-02-18T04:39:11;99371.96;;;6.32;64.16
44441;BME280;30146;52.268;20.944;2023-02-18T04:41:40;99362.98;;;6.31;64.20
44441;BME280;30146;52.268;20.944;2023-02-18T04:44:08;99367.59;;;6.29;64.26
44441;BME280;30146;52.268;20.944;2023-02-18T04:46:37;99368.79;;;6.28;64.21
44441;BME280;30146;52.268;20.944;2023-02-18T04:49:06;99376.60;;;6.26;64.41
44441;BME280;30146;52.268;20.944;2023-02-18T04:51:34;99371.50;;;6.27;64.36
44441;BME280;30146;52.268;20.944;2023-02-18T04:54:04;99364.73;;;6.27;64.29
44441;BME280;30146;52.268;20.944;2023-02-18T04:56:33;99370.84;;;6.26;64.28
44441;BME280;30146;52.268;20.944;2023-02-18T04:59:01;99381.69;;;6.26;64.32
44441;BME280;30146;52.268;20.944;2023-02-18T05:01:29;99371.52;;;6.25;64.31
44441;BME280;30146;52.268;20.944;2023-02-18T05:03:58;99377.13;;;6.25;64.28
44441;BME280;30146;52.268;20.944;2023-02-18T05:06:26;99381.88;;;6.25;64.34
44441;BME280;30146;52.268;20.944;2023-02-18T05:08:54;99388.15;;;6.26;64.22
44441;BME280;30146;52.268;20.944;2023-02-18T05:11:23;99376.45;;;6.25;64.20
44441;BME280;30146;52.268;20.944;2023-02-18T05:13:51;99378.99;;;6.24;64.07
44441;BME280;30146;52.268;20.944;2023-02-18T05:16:19;99377.66;;;6.23;63.95
44441;BME280;30146;52.268;20.944;2023-02-18T05:18:47;99382.42;;;6.21;63.98
44441;BME280;30146;52.268;20.944;2023-02-18T05:21:16;99386.48;;;6.20;63.84
44441;BME280;30146;52.268;20.944;2023-02-18T05:23:44;99393.96;;;6.20;63.97
44441;BME280;30146;52.268;20.944;2023-02-18T05:26:12;99392.42;;;6.20;64.00
44441;BME280;30146;52.268;20.944;2023-02-18T05:28:40;99393.13;;;6.19;63.93
44441;BME280;30146;52.268;20.944;2023-02-18T05:31:09;99399.06;;;6.18;64.01
44441;BME280;30146;52.268;20.944;2023-02-18T05:33:37;99404.33;;;6.17;63.80
44441;BME280;30146;52.268;20.944;2023-02-18T05:36:07;99393.65;;;6.15;63.76
44441;BME280;30146;52.268;20.944;2023-02-18T05:38:35;99408.42;;;6.13;63.79
44441;BME280;30146;52.268;20.944;2023-02-18T05:41:04;99410.64;;;6.11;63.77
44441;BME280;30146;52.268;20.944;2023-02-18T05:43:32;99414.38;;;6.09;63.87
44441;BME280;30146;52.268;20.944;2023-02-18T05:46:21;99412.02;;;6.09;63.74
44441;BME280;30146;52.268;20.944;2023-02-18T05:48:49;99408.80;;;6.07;63.90
44441;BME280;30146;52.268;20.944;2023-02-18T05:51:18;99414.73;;;6.07;63.80
44441;BME280;30146;52.268;20.944;2023-02-18T05:53:46;99419.85;;;6.06;63.76
44441;BME280;30146;52.268;20.944;2023-02-18T05:56:14;99421.54;;;6.06;63.85
44441;BME280;30146;52.268;20.944;2023-02-18T05:58:43;99425.77;;;6.06;63.81
44441;BME280;30146;52.268;20.944;2023-02-18T06:01:11;99421.88;;;6.05;63.92
44441;BME280;30146;52.268;20.944;2023-02-18T06:03:40;99412.89;;;6.05;63.69
44441;BME280;30146;52.268;20.944;2023-02-18T06:06:08;99412.05;;;6.05;63.87
44441;BME280;30146;52.268;20.944;2023-02-18T06:08:37;99424.92;;;6.05;63.66
44441;BME280;30146;52.268;20.944;2023-02-18T06:11:05;99412.55;;;6.06;63.78
44441;BME280;30146;52.268;20.944;2023-02-18T06:13:33;99427.80;;;6.05;63.63
44441;BME280;30146;52.268;20.944;2023-02-18T06:16:02;99428.32;;;6.06;63.66
44441;BME280;30146;52.268;20.944;2023-02-18T06:18:30;99437.31;;;6.05;63.63
44441;BME280;30146;52.268;20.944;2023-02-18T06:20:58;99439.69;;;6.06;63.38
44441;BME280;30146;52.268;20.944;2023-02-18T06:23:27;99437.48;;;6.06;63.46
44441;BME280;30146;52.268;20.944;2023-02-18T06:25:55;99436.97;;;6.07;63.56
44441;BME280;30146;52.268;20.944;2023-02-18T06:28:23;99449.69;;;6.08;63.46
44441;BME280;30146;52.268;20.944;2023-02-18T06:30:52;99449.70;;;6.08;63.54
44441;BME280;30146;52.268;20.944;2023-02-18T06:33:20;99448.67;;;6.09;63.45
44441;BME280;30146;52.268;20.944;2023-02-18T06:35:56;99453.23;;;6.09;63.49
44441;BME280;30146;52.268;20.944;2023-02-18T06:38:25;99447.45;;;6.10;63.38
44441;BME280;30146;52.268;20.944;2023-02-18T06:40:54;99451.20;;;6.11;63.38
44441;BME280;30146;52.268;20.944;2023-02-18T06:43:22;99444.91;;;6.10;63.41
44441;BME280;30146;52.268;20.944;2023-02-18T06:45:51;99456.28;;;6.12;63.37
44441;BME280;30146;52.268;20.944;2023-02-18T06:48:19;99472.23;;;6.12;63.26
44441;BME280;30146;52.268;20.944;2023-02-18T06:50:49;99469.00;;;6.12;63.27
44441;BME280;30146;52.268;20.944;2023-02-18T06:53:17;99477.32;;;6.12;63.25
44441;BME280;30146;52.268;20.944;2023-02-18T06:55:45;99474.09;;;6.14;63.15
44441;BME280;30146;52.268;20.944;2023-02-18T06:58:14;99481.36;;;6.16;63.35
44441;BME280;30146;52.268;20.944;2023-02-18T07:00:43;99486.78;;;6.18;63.40
44441;BME280;30146;52.268;20.944;2023-02-18T07:03:12;99485.77;;;6.20;63.28
44441;BME280;30146;52.268;20.944;2023-02-18T07:05:41;99478.80;;;6.23;63.21
44441;BME280;30146;52.268;20.944;2023-02-18T07:08:09;99473.84;;;6.27;63.04
44441;BME280;30146;52.268;20.944;2023-02-18T07:10:37;99481.76;;;6.39;63.22
44441;BME280;30146;52.268;20.944;2023-02-18T07:13:06;99486.80;;;6.45;63.09
44441;BME280;30146;52.268;20.944;2023-02-18T07:15:34;99489.66;;;6.50;62.92
44441;BME280;30146;52.268;20.944;2023-02-18T07:18:03;99482.31;;;6.56;62.77
44441;BME280;30146;52.268;20.944;2023-02-18T07:20:31;99485.59;;;6.71;62.92
44441;BME280;30146;52.268;20.944;2023-02-18T07:23:00;99492.75;;;6.90;62.95
44441;BME280;30146;52.268;20.944;2023-02-18T07:25:28;99483.22;;;7.46;64.06
44441;BME280;30146;52.268;20.944;2023-02-18T07:27:56;99484.63;;;7.88;63.77
44441;BME280;30146;52.268;20.944;2023-02-18T07:30:24;99492.98;;;7.99;62.66
44441;BME280;30146;52.268;20.944;2023-02-18T07:32:54;99489.81;;;7.95;61.67
44441;BME280;30146;52.268;20.944;2023-02-18T07:35:22;99487.46;;;7.94;61.62
44441;BME280;30146;52.268;20.944;2023-02-18T07:37:51;99485.16;;;7.99;61.45
44441;BME280;30146;52.268;20.944;2023-02-18T07:40:20;99479.65;;;8.43;62.36
44441;BME280;30146;52.268;20.944;2023-02-18T07:42:49;99485.91;;;8.70;61.97
44441;BME280;30146;52.268;20.944;2023-02-18T07:45:19;99486.74;;;9.22;62.13
44441;BME280;30146;52.268;20.944;2023-02-18T07:47:48;99482.33;;;9.67;61.95
44441;BME280;30146;52.268;20.944;2023-02-18T07:50:26;99485.44;;;9.64;60.42
44441;BME280;30146;52.268;20.944;2023-02-18T07:52:55;99491.30;;;9.53;59.66
44441;BME280;30146;52.268;20.944;2023-02-18T07:55:23;99494.77;;;9.60;59.48
44441;BME280;30146;52.268;20.944;2023-02-18T07:57:52;99505.98;;;9.62;59.00
44441;BME280;30146;52.268;20.944;2023-02-18T08:00:28;99502.84;;;9.47;58.44
44441;BME280;30146;52.268;20.944;2023-02-18T08:02:57;99497.00;;;9.30;58.34
44441;BME280;30146;52.268;20.944;2023-02-18T08:05:26;99498.32;;;9.14;58.16
44441;BME280;30146;52.268;20.944;2023-02-18T08:07:56;99499.08;;;8.99;58.07
44441;BME280;30146;52.268;20.944;2023-02-18T08:10:24;99491.48;;;8.83;57.85
44441;BME280;30146;52.268;20.944;2023-02-18T08:12:53;99493.29;;;8.66;57.82
44441;BME280;30146;52.268;20.944;2023-02-18T08:15:23;99503.89;;;8.52;57.82
44441;BME280;30146;52.268;20.944;2023-02-18T08:17:51;99497.74;;;8.39;57.93
44441;BME280;30146;52.268;20.944;2023-02-18T08:20:20;99506.20;;;8.30;58.16
44441;BME280;30146;52.268;20.944;2023-02-18T08:22:49;99502.88;;;8.25;58.19
44441;BME280;30146;52.268;20.944;2023-02-18T08:25:17;99503.92;;;8.23;58.34
44441;BME280;30146;52.268;20.944;2023-02-18T08:27:57;99505.13;;;8.21;58.29
44441;BME280;30146;52.268;20.944;2023-02-18T08:30:25;99509.20;;;8.22;58.55
44441;BME280;30146;52.268;20.944;2023-02-18T08:32:54;99500.13;;;8.40;58.71
44441;BME280;30146;52.268;20.944;2023-02-18T08:35:22;99500.52;;;8.50;58.47
44441;BME280;30146;52.268;20.944;2023-02-18T08:37:51;99500.97;;;8.54;58.29
44441;BME280;30146;52.268;20.944;2023-02-18T08:40:22;99495.97;;;8.57;58.32
44441;BME280;30146;52.268;20.944;2023-02-18T08:42:50;99505.31;;;8.59;58.15
44441;BME280;30146;52.268;20.944;2023-02-18T08:45:18;99502.94;;;8.58;57.74
44441;BME280;30146;52.268;20.944;2023-02-18T08:47:47;99509.13;;;8.55;57.58
44441;BME280;30146;52.268;20.944;2023-02-18T08:50:35;99508.47;;;8.53;57.80
44441;BME280;30146;52.268;20.944;2023-02-18T08:53:04;99510.60;;;8.59;57.77
44441;BME280;30146;52.268;20.944;2023-02-18T08:55:33;99518.25;;;8.60;57.32
44441;BME280;30146;52.268;20.944;2023-02-18T08:58:15;99520.60;;;8.63;57.22
44441;BME280;30146;52.268;20.944;2023-02-18T09:00:44;99515.19;;;8.60;57.01
44441;BME280;30146;52.268;20.944;2023-02-18T09:03:14;99519.59;;;8.62;57.01
44441;BME280;30146;52.268;20.944;2023-02-18T09:05:42;99518.19;;;8.64;57.16
44441;BME280;30146;52.268;20.944;2023-02-18T09:08:10;99517.81;;;8.67;57.05
44441;BME280;30146;52.268;20.944;2023-02-18T09:10:39;99520.98;;;8.71;56.90
44441;BME280;30146;52.268;20.944;2023-02-18T09:13:07;99523.78;;;8.78;57.00
44441;BME280;30146;52.268;20.944;2023-02-18T09:15:35;99520.11;;;8.83;56.81
44441;BME280;30146;52.268;20.944;2023-02-18T09:18:04;99535.27;;;8.84;56.48
44441;BME280;30146;52.268;20.944;2023-02-18T09:20:32;99534.04;;;8.87;56.92
44441;BME280;30146;52.268;20.944;2023-02-18T09:23:00;99541.46;;;8.91;56.95
44441;BME280;30146;52.268;20.944;2023-02-18T09:25:30;99542.77;;;8.96;56.79
44441;BME280;30146;52.268;20.944;2023-02-18T09:28:01;99543.11;;;8.95;56.43
44441;BME280;30146;52.268;20.944;2023-02-18T09:30:29;99547.61;;;8.92;56.15
44441;BME280;30146;52.268;20.944;2023-02-18T09:32:57;99547.52;;;8.86;55.80
44441;BME280;30146;52.268;20.944;2023-02-18T09:35:26;99556.35;;;8.76;55.74
44441;BME280;30146;52.268;20.944;2023-02-18T09:37:54;99548.41;;;8.71;55.80
44441;BME280;30146;52.268;20.944;2023-02-18T09:40:26;99552.52;;;8.69;55.88
44441;BME280;30146;52.268;20.944;2023-02-18T09:42:57;99558.19;;;8.66;55.85
44441;BME280;30146;52.268;20.944;2023-02-18T09:45:26;99557.21;;;8.63;55.99
44441;BME280;30146;52.268;20.944;2023-02-18T09:47:56;99560.98;;;8.61;55.95
44441;BME280;30146;52.268;20.944;2023-02-18T09:50:27;99568.00;;;8.59;55.99
44441;BME280;30146;52.268;20.944;2023-02-18T09:52:59;99564.96;;;8.57;55.78
44441;BME280;30146;52.268;20.944;2023-02-18T09:55:31;99570.95;;;8.56;55.95
44441;BME280;30146;52.268;20.944;2023-02-18T09:58:02;99573.20;;;8.53;55.75
44441;BME280;30146;52.268;20.944;2023-02-18T10:00:34;99578.86;;;8.51;56.01
44441;BME280;30146;52.268;20.944;2023-02-18T10:03:05;99587.09;;;8.46;55.73
44441;BME280;30146;52.268;20.944;2023-02-18T10:05:36;99589.34;;;8.42;55.82
44441;BME280;30146;52.268;20.944;2023-02-18T10:08:17;99590.55;;;8.38;55.73
44441;BME280;30146;52.268;20.944;2023-02-18T10:10:47;99585.48;;;8.37;55.89
44441;BME280;30146;52.268;20.944;2023-02-18T10:13:18;99600.65;;;8.36;56.11
44441;BME280;30146;52.268;20.944;2023-02-18T10:15:48;99595.73;;;8.34;55.87
44441;BME280;30146;52.268;20.944;2023-02-18T10:18:25;99593.94;;;8.27;55.68
44441;BME280;30146;52.268;20.944;2023-02-18T10:21:02;99598.22;;;8.25;55.66
44441;BME280;30146;52.268;20.944;2023-02-18T10:23:32;99600.42;;;8.25;55.71
44441;BME280;30146;52.268;20.944;2023-02-18T10:26:03;99603.80;;;8.28;55.77
44441;BME280;30146;52.268;20.944;2023-02-18T10:28:34;99597.10;;;8.32;55.82
44441;BME280;30146;52.268;20.944;2023-02-18T10:31:06;99594.80;;;8.40;55.82
44441;BME280;30146;52.268;20.944;2023-02-18T10:33:45;99593.25;;;8.44;55.60
44441;BME280;30146;52.268;20.944;2023-02-18T10:36:23;99595.59;;;8.47;55.58
44441;BME280;30146;52.268;20.944;2023-02-18T10:39:04;99578.52;;;8.51;55.47
44441;BME280;30146;52.268;20.944;2023-02-18T10:41:41;99591.58;;;8.55;55.64
44441;BME280;30146;52.268;20.944;2023-02-18T10:44:19;99588.10;;;8.60;55.25
44441;BME280;30146;52.268;20.944;2023-02-18T10:46:56;99591.45;;;8.64;55.36
44441;BME280;30146;52.268;20.944;2023-02-18T10:49:44;99582.23;;;8.66;55.24
44441;BME280;30146;52.268;20.944;2023-02-18T10:52:17;99575.92;;;8.65;54.86
44441;BME280;30146;52.268;20.944;2023-02-18T10:54:52;99572.19;;;8.65;54.79
44441;BME280;30146;52.268;20.944;2023-02-18T10:57:23;99571.49;;;8.66;54.91
44441;BME280;30146;52.268;20.944;2023-02-18T10:59:57;99560.58;;;8.66;54.83
44441;BME280;30146;52.268;20.944;2023-02-18T11:02:28;99564.53;;;8.64;54.83
44441;BME280;30146;52.268;20.944;2023-02-18T11:04:59;99569.86;;;8.61;54.66
44441;BME280;30146;52.268;20.944;2023-02-18T11:07:34;99569.06;;;8.57;54.84
44441;BME280;30146;52.268;20.944;2023-02-18T11:10:14;99569.28;;;8.53;54.71
44441;BME280;30146;52.268;20.944;2023-02-18T11:12:46;99570.00;;;8.51;54.92
44441;BME280;30146;52.268;20.944;2023-02-18T11:15:21;99566.29;;;8.47;55.08
44441;BME280;30146;52.268;20.944;2023-02-18T11:17:52;99561.05;;;8.44;55.15
44441;BME280;30146;52.268;20.944;2023-02-18T11:20:25;99564.66;;;8.41;55.04
44441;BME280;30146;52.268;20.944;2023-02-18T11:22:57;99559.73;;;8.39;55.13
44441;BME280;30146;52.268;20.944;2023-02-18T11:25:27;99562.31;;;8.38;55.25
44441;BME280;30146;52.268;20.944;2023-02-18T11:28:02;99551.57;;;8.38;55.43
44441;BME280;30146;52.268;20.944;2023-02-18T11:30:34;99552.59;;;8.38;55.30
44441;BME280;30146;52.268;20.944;2023-02-18T11:33:07;99555.81;;;8.39;55.63
44441;BME280;30146;52.268;20.944;2023-02-18T11:35:37;99550.70;;;8.39;55.51
44441;BME280;30146;52.268;20.944;2023-02-18T11:38:20;99546.45;;;8.39;55.52
44441;BME280;30146;52.268;20.944;2023-02-18T11:40:55;99551.89;;;8.40;55.50
44441;BME280;30146;52.268;20.944;2023-02-18T11:43:28;99547.98;;;8.39;55.55
44441;BME280;30146;52.268;20.944;2023-02-18T11:46:09;99542.86;;;8.39;55.59
44441;BME280;30146;52.268;20.944;2023-02-18T11:48:37;99534.84;;;8.41;55.71
44441;BME280;30146;52.268;20.944;2023-02-18T11:51:15;99535.84;;;8.45;55.75
44441;BME280;30146;52.268;20.944;2023-02-18T11:54:00;99530.98;;;8.50;55.94
44441;BME280;30146;52.268;20.944;2023-02-18T11:56:31;99523.27;;;8.55;55.59
44441;BME280;30146;52.268;20.944;2023-02-18T11:59:01;99522.34;;;8.60;55.47
44441;BME280;30146;52.268;20.944;2023-02-18T12:01:42;99519.92;;;8.63;55.39
44441;BME280;30146;52.268;20.944;2023-02-18T12:04:14;99516.83;;;8.63;55.47
44441;BME280;30146;52.268;20.944;2023-02-18T12:06:49;99516.81;;;8.66;55.43
44441;BME280;30146;52.268;20.944;2023-02-18T12:09:26;99515.21;;;8.70;55.60
44441;BME280;30146;52.268;20.944;2023-02-18T12:11:57;99512.45;;;8.72;55.15
44441;BME280;30146;52.268;20.944;2023-02-18T12:14:27;99510.88;;;8.75;55.20
44441;BME280;30146;52.268;20.944;2023-02-18T12:17:25;99510.82;;;8.79;55.22
44441;BME280;30146;52.268;20.944;2023-02-18T12:20:23;99508.36;;;8.83;55.19
44441;BME280;30146;52.268;20.944;2023-02-18T12:23:00;99505.42;;;8.85;55.18
44441;BME280;30146;52.268;20.944;2023-02-18T12:25:36;99505.06;;;8.87;55.12
44441;BME280;30146;52.268;20.944;2023-02-18T12:28:26;99505.77;;;8.86;54.98
44441;BME280;30146;52.268;20.944;2023-02-18T12:31:10;99504.26;;;8.84;54.65
44441;BME280;30146;52.268;20.944;2023-02-18T12:33:53;99502.41;;;8.82;54.83
44441;BME280;30146;52.268;20.944;2023-02-18T12:36:35;99490.34;;;8.81;54.75
44441;BME280;30146;52.268;20.944;2023-02-18T12:39:15;99492.52;;;8.82;54.84
44441;BME280;30146;52.268;20.944;2023-02-18T12:41:58;99487.20;;;8.86;54.76
44441;BME280;30146;52.268;20.944;2023-02-18T12:44:37;99493.10;;;8.89;54.71
44441;BME280;30146;52.268;20.944;2023-02-18T12:47:29;99487.77;;;8.91;54.53
44441;BME280;30146;52.268;20.944;2023-02-18T12:53:14;99482.72;;;8.98;54.53
44441;BME280;30146;52.268;20.944;2023-02-18T12:55:56;99487.30;;;9.00;54.30
44441;BME280;30146;52.268;20.944;2023-02-18T12:58:38;99485.45;;;8.99;54.04
44441;BME280;30146;52.268;20.944;2023-02-18T13:01:23;99478.17;;;8.96;53.96
44441;BME280;30146;52.268;20.944;2023-02-18T13:04:27;99474.27;;;8.94;54.02
44441;BME280;30146;52.268;20.944;2023-02-18T13:10:15;99468.43;;;8.87;53.96
44441;BME280;30146;52.268;20.944;2023-02-18T13:12:53;99462.33;;;8.84;53.75
44441;BME280;30146;52.268;20.944;2023-02-18T13:15:36;99462.33;;;8.84;54.03
44441;BME280;30146;52.268;20.944;2023-02-18T13:18:11;99449.91;;;8.83;53.89
44441;BME280;30146;52.268;20.944;2023-02-18T13:20:42;99450.65;;;8.80;53.89
44441;BME280;30146;52.268;20.944;2023-02-18T13:23:17;99450.07;;;8.74;53.88
44441;BME280;30146;52.268;20.944;2023-02-18T13:25:50;99447.95;;;8.67;54.02
44441;BME280;30146;52.268;20.944;2023-02-18T13:28:27;99454.17;;;8.62;54.29
44441;BME280;30146;52.268;20.944;2023-02-18T13:31:09;99457.67;;;8.56;54.32
44441;BME280;30146;52.268;20.944;2023-02-18T13:33:46;99460.33;;;8.49;54.44
44441;BME280;30146;52.268;20.944;2023-02-18T13:36:30;99456.48;;;8.43;54.69
44441;BME280;30146;52.268;20.944;2023-02-18T13:39:05;99465.90;;;8.39;54.81